Terminal Aerodrome Forecast
Issued by NWS

Home | Current Version | Previous Version | Text Only | Print | Product List | Glossary On
Versions: 1 2 3 4 5 6 7 8 9 10 11 12 13 14 15 16 17 18 19 20 21 22 23
000
FTUS43 KILX 070735 AAA
TAFDEC
TAF AMD
KDEC 070735Z 0708/0806 20011KT P6SM VCSH SCT070
      TEMPO 0708/0710 5SM -SHRA BR BKN025
     FM071000 22008KT 5SM -SHRA BR VCTS BKN015CB OVC035
     FM071400 35008KT 3SM -RA BR OVC006
     FM071900 02010KT 4SM -RA BR BKN007 OVC015
     FM080200 04012KT P6SM OVC020=

USA.gov is the U.S. government's official web portal to all federal, state and local government web resources and services.